sensor_id;sensor_type;location;lat;lon;timestamp;pressure;altitude;pressure_sealevel;temperature;humidity
52137;BME280;38130;49.012;8.368;2022-08-25T00:01:12;100279.84;;;22.69;72.34
52137;BME280;38130;49.012;8.368;2022-08-25T00:03:40;100281.53;;;22.70;72.64
52137;BME280;38130;49.012;8.368;2022-08-25T00:06:09;100276.81;;;22.64;72.96
52137;BME280;38130;49.012;8.368;2022-08-25T00:08:37;100282.97;;;22.55;73.56
52137;BME280;38130;49.012;8.368;2022-08-25T00:11:06;100276.06;;;22.44;74.54
52137;BME280;38130;49.012;8.368;2022-08-25T00:13:33;100276.47;;;22.39;74.44
52137;BME280;38130;49.012;8.368;2022-08-25T00:15:59;100284.56;;;22.38;74.77
52137;BME280;38130;49.012;8.368;2022-08-25T00:18:26;100275.81;;;22.28;75.58
52137;BME280;38130;49.012;8.368;2022-08-25T00:20:53;100274.84;;;22.19;76.57
52137;BME280;38130;49.012;8.368;2022-08-25T00:23:19;100274.59;;;22.13;76.71
52137;BME280;38130;49.012;8.368;2022-08-25T00:25:46;100280.03;;;22.11;77.11
52137;BME280;38130;49.012;8.368;2022-08-25T00:28:13;100286.00;;;22.03;77.76
52137;BME280;38130;49.012;8.368;2022-08-25T00:30:42;100282.81;;;22.00;78.27
52137;BME280;38130;49.012;8.368;2022-08-25T00:33:09;100280.28;;;21.98;77.87
52137;BME280;38130;49.012;8.368;2022-08-25T00:35:36;100272.19;;;21.90;78.44
52137;BME280;38130;49.012;8.368;2022-08-25T00:38:03;100280.97;;;21.91;79.18
52137;BME280;38130;49.012;8.368;2022-08-25T00:40:30;100281.56;;;21.94;78.35
52137;BME280;38130;49.012;8.368;2022-08-25T00:42:56;100290.59;;;21.92;78.37
52137;BME280;38130;49.012;8.368;2022-08-25T00:45:23;100292.00;;;21.86;78.78
52137;BME280;38130;49.012;8.368;2022-08-25T00:47:49;100288.81;;;21.82;79.02
52137;BME280;38130;49.012;8.368;2022-08-25T00:50:16;100295.91;;;21.82;78.86
52137;BME280;38130;49.012;8.368;2022-08-25T00:52:46;100288.66;;;21.84;78.38
52137;BME280;38130;49.012;8.368;2022-08-25T00:55:18;100288.53;;;21.86;78.88
52137;BME280;38130;49.012;8.368;2022-08-25T00:57:53;100289.38;;;21.96;78.44
52137;BME280;38130;49.012;8.368;2022-08-25T01:00:43;100280.59;;;22.05;77.72
52137;BME280;38130;49.012;8.368;2022-08-25T01:03:11;100289.47;;;22.04;77.70
52137;BME280;38130;49.012;8.368;2022-08-25T01:05:38;100281.53;;;22.04;77.73
52137;BME280;38130;49.012;8.368;2022-08-25T01:08:07;100277.78;;;22.06;77.96
52137;BME280;38130;49.012;8.368;2022-08-25T01:10:38;100278.47;;;22.08;77.96
52137;BME280;38130;49.012;8.368;2022-08-25T01:13:11;100287.97;;;22.11;78.25
52137;BME280;38130;49.012;8.368;2022-08-25T01:15:43;100287.84;;;22.13;78.11
52137;BME280;38130;49.012;8.368;2022-08-25T01:18:09;100290.50;;;22.13;78.14
52137;BME280;38130;49.012;8.368;2022-08-25T01:20:37;100289.38;;;22.05;78.70
52137;BME280;38130;49.012;8.368;2022-08-25T01:23:03;100290.34;;;22.14;78.07
52137;BME280;38130;49.012;8.368;2022-08-25T01:27:59;100293.44;;;22.09;78.37
52137;BME280;38130;49.012;8.368;2022-08-25T01:30:26;100293.44;;;22.09;78.48
52137;BME280;38130;49.012;8.368;2022-08-25T01:32:53;100290.47;;;22.03;79.07
52137;BME280;38130;49.012;8.368;2022-08-25T01:35:19;100292.56;;;21.99;79.71
52137;BME280;38130;49.012;8.368;2022-08-25T01:37:46;100291.59;;;22.00;79.32
52137;BME280;38130;49.012;8.368;2022-08-25T01:40:13;100288.78;;;22.02;79.44
52137;BME280;38130;49.012;8.368;2022-08-25T01:42:53;100289.63;;;22.02;79.50
52137;BME280;38130;49.012;8.368;2022-08-25T01:45:23;100290.59;;;22.01;79.50
52137;BME280;38130;49.012;8.368;2022-08-25T01:47:50;100290.88;;;21.98;79.92
52137;BME280;38130;49.012;8.368;2022-08-25T01:50:17;100302.19;;;22.00;79.80
52137;BME280;38130;49.012;8.368;2022-08-25T01:52:53;100290.19;;;21.87;80.65
52137;BME280;38130;49.012;8.368;2022-08-25T01:55:22;100290.19;;;21.87;81.04
52137;BME280;38130;49.012;8.368;2022-08-25T01:57:48;100289.34;;;21.86;81.12
52137;BME280;38130;49.012;8.368;2022-08-25T02:00:16;100285.31;;;21.82;81.36
52137;BME280;38130;49.012;8.368;2022-08-25T02:02:43;100285.31;;;21.82;81.42
52137;BME280;38130;49.012;8.368;2022-08-25T02:05:11;100284.06;;;21.86;81.35
52137;BME280;38130;49.012;8.368;2022-08-25T02:07:39;100286.56;;;21.88;81.43
52137;BME280;38130;49.012;8.368;2022-08-25T02:10:09;100281.69;;;21.83;81.87
52137;BME280;38130;49.012;8.368;2022-08-25T02:12:37;100288.22;;;21.89;81.66
52137;BME280;38130;49.012;8.368;2022-08-25T02:15:05;100283.09;;;21.87;81.60
52137;BME280;38130;49.012;8.368;2022-08-25T02:17:33;100282.69;;;21.82;82.10
52137;BME280;38130;49.012;8.368;2022-08-25T02:20:05;100287.13;;;21.81;81.99
52137;BME280;38130;49.012;8.368;2022-08-25T02:22:32;100280.03;;;21.82;81.90
52137;BME280;38130;49.012;8.368;2022-08-25T02:24:58;100279.06;;;21.83;81.99
52137;BME280;38130;49.012;8.368;2022-08-25T02:27:25;100275.56;;;21.73;82.62
52137;BME280;38130;49.012;8.368;2022-08-25T02:29:51;100277.78;;;21.77;82.60
52137;BME280;38130;49.012;8.368;2022-08-25T02:32:18;100280.88;;;21.82;82.47
52137;BME280;38130;49.012;8.368;2022-08-25T02:34:44;100277.09;;;21.75;83.02
52137;BME280;38130;49.012;8.368;2022-08-25T02:37:10;100285.31;;;21.72;83.63
52137;BME280;38130;49.012;8.368;2022-08-25T02:39:38;100278.63;;;21.68;84.56
52137;BME280;38130;49.012;8.368;2022-08-25T02:42:04;100276.41;;;21.64;84.62
52137;BME280;38130;49.012;8.368;2022-08-25T02:44:31;100264.41;;;21.69;84.59
52137;BME280;38130;49.012;8.368;2022-08-25T02:46:57;100272.38;;;21.79;83.73
52137;BME280;38130;49.012;8.368;2022-08-25T02:49:24;100269.59;;;21.80;83.70
52137;BME280;38130;49.012;8.368;2022-08-25T02:51:50;100268.75;;;21.80;83.60
52137;BME280;38130;49.012;8.368;2022-08-25T02:54:17;100269.00;;;21.87;83.51
52137;BME280;38130;49.012;8.368;2022-08-25T02:56:43;100267.47;;;21.94;82.66
52137;BME280;38130;49.012;8.368;2022-08-25T02:59:10;100265.25;;;21.79;83.83
52137;BME280;38130;49.012;8.368;2022-08-25T03:01:36;100265.97;;;21.81;83.98
52137;BME280;38130;49.012;8.368;2022-08-25T03:04:03;100265.25;;;21.70;84.59
52137;BME280;38130;49.012;8.368;2022-08-25T03:06:29;100265.41;;;21.68;84.66
52137;BME280;38130;49.012;8.368;2022-08-25T03:08:56;100274.47;;;21.66;84.90
52137;BME280;38130;49.012;8.368;2022-08-25T03:11:23;100270.53;;;21.60;85.46
52137;BME280;38130;49.012;8.368;2022-08-25T03:13:50;100269.84;;;21.39;85.92
52137;BME280;38130;49.012;8.368;2022-08-25T03:16:17;100264.13;;;21.34;86.27
52137;BME280;38130;49.012;8.368;2022-08-25T03:18:44;100270.31;;;21.13;87.56
52137;BME280;38130;49.012;8.368;2022-08-25T03:21:11;100280.47;;;21.08;88.38
52137;BME280;38130;49.012;8.368;2022-08-25T03:23:41;100278.47;;;20.91;89.52
52137;BME280;38130;49.012;8.368;2022-08-25T03:26:08;100272.16;;;20.73;90.92
52137;BME280;38130;49.012;8.368;2022-08-25T03:28:53;100267.16;;;20.49;93.69
52137;BME280;38130;49.012;8.368;2022-08-25T03:31:21;100263.75;;;20.37;95.00
52137;BME280;38130;49.012;8.368;2022-08-25T03:33:48;100266.59;;;20.24;96.18
52137;BME280;38130;49.012;8.368;2022-08-25T03:36:14;100259.91;;;20.20;97.05
52137;BME280;38130;49.012;8.368;2022-08-25T03:38:41;100257.75;;;20.14;97.56
52137;BME280;38130;49.012;8.368;2022-08-25T03:41:13;100246.91;;;20.08;98.08
52137;BME280;38130;49.012;8.368;2022-08-25T03:43:40;100243.09;;;20.00;98.89
52137;BME280;38130;49.012;8.368;2022-08-25T03:46:07;100243.75;;;19.93;99.48
52137;BME280;38130;49.012;8.368;2022-08-25T03:48:34;100234.28;;;19.90;99.82
52137;BME280;38130;49.012;8.368;2022-08-25T03:51:00;100245.28;;;19.95;100.00
52137;BME280;38130;49.012;8.368;2022-08-25T03:53:27;100239.34;;;20.03;99.49
52137;BME280;38130;49.012;8.368;2022-08-25T03:55:53;100243.84;;;20.12;99.35
52137;BME280;38130;49.012;8.368;2022-08-25T03:58:20;100248.88;;;20.15;98.80
52137;BME280;38130;49.012;8.368;2022-08-25T04:00:47;100244.16;;;20.19;98.35
52137;BME280;38130;49.012;8.368;2022-08-25T04:03:14;100258.09;;;20.21;98.22
52137;BME280;38130;49.012;8.368;2022-08-25T04:05:40;100244.22;;;20.28;98.05
52137;BME280;38130;49.012;8.368;2022-08-25T04:08:06;100248.13;;;20.34;97.65
52137;BME280;38130;49.012;8.368;2022-08-25T04:10:35;100254.34;;;20.44;96.79
52137;BME280;38130;49.012;8.368;2022-08-25T04:13:03;100252.97;;;20.50;96.18
52137;BME280;38130;49.012;8.368;2022-08-25T04:15:30;100261.63;;;20.52;96.15
52137;BME280;38130;49.012;8.368;2022-08-25T04:17:56;100254.53;;;20.52;96.18
52137;BME280;38130;49.012;8.368;2022-08-25T04:20:24;100260.34;;;20.46;96.39
52137;BME280;38130;49.012;8.368;2022-08-25T04:22:51;100261.69;;;20.41;96.78
52137;BME280;38130;49.012;8.368;2022-08-25T04:25:18;100261.31;;;20.45;96.75
52137;BME280;38130;49.012;8.368;2022-08-25T04:27:45;100257.97;;;20.43;96.50
52137;BME280;38130;49.012;8.368;2022-08-25T04:30:12;100259.63;;;20.44;96.70
52137;BME280;38130;49.012;8.368;2022-08-25T04:32:38;100264.31;;;20.41;96.70
52137;BME280;38130;49.012;8.368;2022-08-25T04:35:05;100262.53;;;20.41;96.54
52137;BME280;38130;49.012;8.368;2022-08-25T04:37:33;100266.63;;;20.34;97.12
52137;BME280;38130;49.012;8.368;2022-08-25T04:40:00;100261.31;;;20.24;97.97
52137;BME280;38130;49.012;8.368;2022-08-25T04:42:26;100271.03;;;20.24;98.33
52137;BME280;38130;49.012;8.368;2022-08-25T04:44:53;100263.88;;;20.15;98.93
52137;BME280;38130;49.012;8.368;2022-08-25T04:47:20;100263.75;;;20.16;99.34
52137;BME280;38130;49.012;8.368;2022-08-25T04:49:46;100258.47;;;20.16;99.22
52137;BME280;38130;49.012;8.368;2022-08-25T04:52:13;100252.81;;;20.21;99.02
52137;BME280;38130;49.012;8.368;2022-08-25T04:54:40;100252.41;;;20.25;98.35
52137;BME280;38130;49.012;8.368;2022-08-25T04:57:07;100254.22;;;20.25;98.12
52137;BME280;38130;49.012;8.368;2022-08-25T04:59:33;100253.31;;;20.15;98.70
52137;BME280;38130;49.012;8.368;2022-08-25T05:02:00;100252.03;;;20.09;99.91
52137;BME280;38130;49.012;8.368;2022-08-25T05:04:29;100255.97;;;20.15;100.00
52137;BME280;38130;49.012;8.368;2022-08-25T05:06:56;100259.63;;;20.02;100.00
52137;BME280;38130;49.012;8.368;2022-08-25T05:09:23;100251.00;;;20.00;100.00
52137;BME280;38130;49.012;8.368;2022-08-25T05:11:50;100256.53;;;19.97;100.00
52137;BME280;38130;49.012;8.368;2022-08-25T05:14:17;100255.13;;;19.93;100.00
52137;BME280;38130;49.012;8.368;2022-08-25T05:16:49;100253.00;;;19.87;100.00
52137;BME280;38130;49.012;8.368;2022-08-25T05:19:16;100252.59;;;19.71;100.00
52137;BME280;38130;49.012;8.368;2022-08-25T05:21:43;100251.44;;;19.64;100.00
52137;BME280;38130;49.012;8.368;2022-08-25T05:24:09;100246.41;;;19.61;100.00
52137;BME280;38130;49.012;8.368;2022-08-25T05:26:36;100258.00;;;19.69;100.00
52137;BME280;38130;49.012;8.368;2022-08-25T05:29:04;100254.06;;;19.64;100.00
52137;BME280;38130;49.012;8.368;2022-08-25T05:31:32;100261.94;;;19.75;100.00
52137;BME280;38130;49.012;8.368;2022-08-25T05:34:04;100259.09;;;19.88;100.00
52137;BME280;38130;49.012;8.368;2022-08-25T05:36:30;100266.84;;;20.00;100.00
52137;BME280;38130;49.012;8.368;2022-08-25T05:38:59;100263.84;;;20.05;100.00
52137;BME280;38130;49.012;8.368;2022-08-25T05:41:28;100257.75;;;20.14;100.00
52137;BME280;38130;49.012;8.368;2022-08-25T05:43:55;100254.41;;;20.12;100.00
52137;BME280;38130;49.012;8.368;2022-08-25T05:46:22;100258.44;;;20.07;100.00
52137;BME280;38130;49.012;8.368;2022-08-25T05:48:48;100257.81;;;20.03;100.00
52137;BME280;38130;49.012;8.368;2022-08-25T05:51:15;100253.00;;;20.08;100.00
52137;BME280;38130;49.012;8.368;2022-08-25T05:53:48;100252.81;;;20.21;100.00
52137;BME280;38130;49.012;8.368;2022-08-25T05:56:15;100246.63;;;20.11;100.00
52137;BME280;38130;49.012;8.368;2022-08-25T05:58:42;100245.66;;;20.12;100.00
52137;BME280;38130;49.012;8.368;2022-08-25T06:01:09;100243.28;;;20.09;100.00
52137;BME280;38130;49.012;8.368;2022-08-25T06:04:02;100233.34;;;20.01;100.00
52137;BME280;38130;49.012;8.368;2022-08-25T06:06:28;100242.31;;;20.10;100.00
52137;BME280;38130;49.012;8.368;2022-08-25T06:08:55;100238.72;;;20.11;100.00
52137;BME280;38130;49.012;8.368;2022-08-25T06:11:21;100240.81;;;20.17;100.00
52137;BME280;38130;49.012;8.368;2022-08-25T06:13:48;100237.28;;;20.27;100.00
52137;BME280;38130;49.012;8.368;2022-08-25T06:16:15;100237.41;;;20.26;100.00
52137;BME280;38130;49.012;8.368;2022-08-25T06:18:41;100242.75;;;20.36;100.00
52137;BME280;38130;49.012;8.368;2022-08-25T06:21:13;100236.75;;;20.54;100.00
52137;BME280;38130;49.012;8.368;2022-08-25T06:23:40;100241.53;;;20.70;99.23
52137;BME280;38130;49.012;8.368;2022-08-25T06:26:10;100238.75;;;20.81;98.22
52137;BME280;38130;49.012;8.368;2022-08-25T06:28:46;100231.56;;;20.83;98.16
52137;BME280;38130;49.012;8.368;2022-08-25T06:31:13;100232.53;;;20.92;97.40
52137;BME280;38130;49.012;8.368;2022-08-25T06:33:40;100227.44;;;21.00;96.75
52137;BME280;38130;49.012;8.368;2022-08-25T06:36:06;100221.72;;;21.14;95.87
52137;BME280;38130;49.012;8.368;2022-08-25T06:38:34;100223.47;;;21.35;94.62
52137;BME280;38130;49.012;8.368;2022-08-25T06:41:02;100221.91;;;21.61;91.96
52137;BME280;38130;49.012;8.368;2022-08-25T06:43:31;100219.25;;;22.09;89.31
52137;BME280;38130;49.012;8.368;2022-08-25T06:46:10;100217.94;;;22.60;84.81
52137;BME280;38130;49.012;8.368;2022-08-25T06:48:37;100217.88;;;22.70;83.62
52137;BME280;38130;49.012;8.368;2022-08-25T06:51:09;100213.25;;;22.72;83.25
52137;BME280;38130;49.012;8.368;2022-08-25T06:53:39;100218.72;;;22.70;83.11
52137;BME280;38130;49.012;8.368;2022-08-25T06:56:06;100221.31;;;22.80;82.86
52137;BME280;38130;49.012;8.368;2022-08-25T06:58:33;100214.63;;;22.86;82.67
52137;BME280;38130;49.012;8.368;2022-08-25T07:01:08;100215.59;;;22.85;82.58
52137;BME280;38130;49.012;8.368;2022-08-25T07:03:45;100225.66;;;22.81;82.71
52137;BME280;38130;49.012;8.368;2022-08-25T07:06:13;100225.84;;;22.70;83.68
52137;BME280;38130;49.012;8.368;2022-08-25T07:08:44;100224.84;;;22.71;83.88
52137;BME280;38130;49.012;8.368;2022-08-25T07:11:11;100217.47;;;22.75;84.00
52137;BME280;38130;49.012;8.368;2022-08-25T07:13:42;100211.69;;;22.89;83.00
52137;BME280;38130;49.012;8.368;2022-08-25T07:16:08;100203.75;;;22.89;83.08
52137;BME280;38130;49.012;8.368;2022-08-25T07:18:37;100203.66;;;22.98;82.43
52137;BME280;38130;49.012;8.368;2022-08-25T07:21:03;100205.75;;;23.22;81.26
52137;BME280;38130;49.012;8.368;2022-08-25T07:23:34;100213.53;;;23.24;81.61
52137;BME280;38130;49.012;8.368;2022-08-25T07:26:15;100215.69;;;23.38;80.78
52137;BME280;38130;49.012;8.368;2022-08-25T07:29:15;100215.97;;;23.53;79.52
52137;BME280;38130;49.012;8.368;2022-08-25T07:31:46;100212.56;;;23.60;78.87
52137;BME280;38130;49.012;8.368;2022-08-25T07:34:18;100213.94;;;23.65;77.96
52137;BME280;38130;49.012;8.368;2022-08-25T07:37:04;100213.53;;;23.77;78.18
52137;BME280;38130;49.012;8.368;2022-08-25T07:39:32;100209.44;;;23.83;78.09
52137;BME280;38130;49.012;8.368;2022-08-25T07:41:58;100205.78;;;23.84;77.42
52137;BME280;38130;49.012;8.368;2022-08-25T07:44:27;100211.97;;;23.93;77.22
52137;BME280;38130;49.012;8.368;2022-08-25T07:46:54;100209.59;;;24.07;76.44
52137;BME280;38130;49.012;8.368;2022-08-25T07:49:22;100216.19;;;24.55;74.13
52137;BME280;38130;49.012;8.368;2022-08-25T07:51:51;100213.75;;;25.20;69.77
52137;BME280;38130;49.012;8.368;2022-08-25T07:54:33;100211.16;;;25.61;67.77
52137;BME280;38130;49.012;8.368;2022-08-25T07:57:07;100216.16;;;25.80;66.60
52137;BME280;38130;49.012;8.368;2022-08-25T07:59:37;100221.97;;;25.84;66.80
52137;BME280;38130;49.012;8.368;2022-08-25T08:02:10;100211.06;;;26.26;64.79
52137;BME280;38130;49.012;8.368;2022-08-25T08:04:45;100209.63;;;26.71;61.94
52137;BME280;38130;49.012;8.368;2022-08-25T08:07:18;100216.97;;;26.61;62.17
52137;BME280;38130;49.012;8.368;2022-08-25T08:09:46;100218.84;;;26.91;60.83
52137;BME280;38130;49.012;8.368;2022-08-25T08:12:21;100222.63;;;27.05;59.81
52137;BME280;38130;49.012;8.368;2022-08-25T08:14:49;100228.47;;;26.69;61.21
52137;BME280;38130;49.012;8.368;2022-08-25T08:17:16;100218.72;;;26.45;62.49
52137;BME280;38130;49.012;8.368;2022-08-25T08:19:43;100229.63;;;26.67;61.90
52137;BME280;38130;49.012;8.368;2022-08-25T08:22:12;100218.47;;;26.63;62.31
52137;BME280;38130;49.012;8.368;2022-08-25T08:24:42;100220.88;;;26.81;61.49
52137;BME280;38130;49.012;8.368;2022-08-25T08:27:20;100224.16;;;26.99;59.97
52137;BME280;38130;49.012;8.368;2022-08-25T08:29:47;100217.94;;;27.07;59.78
52137;BME280;38130;49.012;8.368;2022-08-25T08:32:13;100212.94;;;26.73;60.77
52137;BME280;38130;49.012;8.368;2022-08-25T08:34:40;100215.31;;;26.68;61.36
52137;BME280;38130;49.012;8.368;2022-08-25T08:37:07;100223.53;;;26.89;60.65
52137;BME280;38130;49.012;8.368;2022-08-25T08:39:36;100211.19;;;26.88;60.88
52137;BME280;38130;49.012;8.368;2022-08-25T08:45:26;100200.28;;;26.98;60.16
52137;BME280;38130;49.012;8.368;2022-08-25T08:54:09;100211.63;;;27.31;57.77
52137;BME280;38130;49.012;8.368;2022-08-25T08:56:44;100201.75;;;27.08;57.36
52137;BME280;38130;49.012;8.368;2022-08-25T08:59:19;100198.44;;;27.06;56.44
52137;BME280;38130;49.012;8.368;2022-08-25T09:01:58;100195.19;;;26.88;56.74
52137;BME280;38130;49.012;8.368;2022-08-25T09:07:25;100186.53;;;27.17;56.40
52137;BME280;38130;49.012;8.368;2022-08-25T09:09:57;100189.78;;;27.88;54.33
52137;BME280;38130;49.012;8.368;2022-08-25T09:15:02;100186.63;;;29.45;47.62
52137;BME280;38130;49.012;8.368;2022-08-25T09:20:37;100181.22;;;29.88;47.04
52137;BME280;38130;49.012;8.368;2022-08-25T09:26:14;100185.56;;;30.17;45.38
52137;BME280;38130;49.012;8.368;2022-08-25T09:31:30;100184.84;;;30.36;44.35
52137;BME280;38130;49.012;8.368;2022-08-25T09:34:01;100187.81;;;30.54;43.57
52137;BME280;38130;49.012;8.368;2022-08-25T09:36:28;100175.53;;;30.04;44.14
52137;BME280;38130;49.012;8.368;2022-08-25T09:39:03;100176.72;;;30.23;43.57
52137;BME280;38130;49.012;8.368;2022-08-25T09:41:50;100167.66;;;30.72;43.32
52137;BME280;38130;49.012;8.368;2022-08-25T09:44:25;100172.50;;;30.96;41.23
52137;BME280;38130;49.012;8.368;2022-08-25T09:47:03;100167.72;;;30.85;40.98
52137;BME280;38130;49.012;8.368;2022-08-25T09:49:57;100169.94;;;30.75;40.92
52137;BME280;38130;49.012;8.368;2022-08-25T09:52:38;100156.78;;;31.06;40.64
52137;BME280;38130;49.012;8.368;2022-08-25T09:57:35;100145.06;;;30.46;41.83
52137;BME280;38130;49.012;8.368;2022-08-25T10:03:16;100149.47;;;29.91;42.06
52137;BME280;38130;49.012;8.368;2022-08-25T10:06:11;100147.06;;;29.68;41.53
52137;BME280;38130;49.012;8.368;2022-08-25T10:08:52;100146.66;;;29.22;42.16
52137;BME280;38130;49.012;8.368;2022-08-25T10:11:42;100144.03;;;29.07;42.42
52137;BME280;38130;49.012;8.368;2022-08-25T10:14:20;100140.31;;;29.30;42.50
52137;BME280;38130;49.012;8.368;2022-08-25T10:16:52;100139.25;;;29.24;41.88
52137;BME280;38130;49.012;8.368;2022-08-25T10:19:37;100141.34;;;29.29;42.47
52137;BME280;38130;49.012;8.368;2022-08-25T10:22:09;100138.97;;;28.98;43.11
52137;BME280;38130;49.012;8.368;2022-08-25T10:24:38;100133.75;;;29.11;43.74
52137;BME280;38130;49.012;8.368;2022-08-25T10:38:35;100110.66;;;29.31;42.90
52137;BME280;38130;49.012;8.368;2022-08-25T10:41:18;100113.28;;;29.46;42.99
52137;BME280;38130;49.012;8.368;2022-08-25T10:43:56;100110.34;;;29.69;42.36
52137;BME280;38130;49.012;8.368;2022-08-25T10:46:36;100105.91;;;29.83;42.14
52137;BME280;38130;49.012;8.368;2022-08-25T10:49:12;100111.94;;;29.91;41.28
52137;BME280;38130;49.012;8.368;2022-08-25T10:54:42;100099.63;;;29.69;41.21
52137;BME280;38130;49.012;8.368;2022-08-25T10:57:39;100093.34;;;29.90;40.97
52137;BME280;38130;49.012;8.368;2022-08-25T11:00:16;100091.78;;;30.02;41.48
52137;BME280;38130;49.012;8.368;2022-08-25T11:03:00;100084.75;;;30.01;41.50
52137;BME280;38130;49.012;8.368;2022-08-25T11:08:33;100076.47;;;30.37;40.38
52137;BME280;38130;49.012;8.368;2022-08-25T11:13:59;100068.53;;;30.77;38.47
52137;BME280;38130;49.012;8.368;2022-08-25T11:16:36;100066.88;;;30.69;38.53
52137;BME280;38130;49.012;8.368;2022-08-25T11:19:12;100060.72;;;30.95;38.65
52137;BME280;38130;49.012;8.368;2022-08-25T11:21:52;100073.31;;;30.94;38.68
52137;BME280;38130;49.012;8.368;2022-08-25T11:24:41;100075.19;;;31.14;37.94
52137;BME280;38130;49.012;8.368;2022-08-25T11:27:14;100071.03;;;30.85;38.42
52137;BME280;38130;49.012;8.368;2022-08-25T11:29:48;100072.69;;;30.86;38.77
52137;BME280;38130;49.012;8.368;2022-08-25T11:32:19;100066.91;;;30.82;38.47
52137;BME280;38130;49.012;8.368;2022-08-25T11:34:47;100061.94;;;30.92;38.36
52137;BME280;38130;49.012;8.368;2022-08-25T11:37:21;100056.38;;;31.14;37.80
52137;BME280;38130;49.012;8.368;2022-08-25T11:45:00;100056.63;;;31.25;37.49
52137;BME280;38130;49.012;8.368;2022-08-25T11:47:59;100046.66;;;30.99;37.85
52137;BME280;38130;49.012;8.368;2022-08-25T11:50:34;100037.59;;;31.20;37.78
52137;BME280;38130;49.012;8.368;2022-08-25T11:53:18;100036.31;;;31.49;36.84
52137;BME280;38130;49.012;8.368;2022-08-25T11:56:07;100028.25;;;31.49;36.89
52137;BME280;38130;49.012;8.368;2022-08-25T11:58:40;100029.50;;;31.47;36.43
52137;BME280;38130;49.012;8.368;2022-08-25T12:01:09;100028.66;;;31.46;36.00
52137;BME280;38130;49.012;8.368;2022-08-25T12:06:24;100019.59;;;31.14;36.82
52137;BME280;38130;49.012;8.368;2022-08-25T12:09:15;100025.38;;;31.05;36.68
52137;BME280;38130;49.012;8.368;2022-08-25T12:11:46;100023.09;;;31.02;36.03
52137;BME280;38130;49.012;8.368;2022-08-25T12:30:07;100003.69;;;30.99;35.11
52137;BME280;38130;49.012;8.368;2022-08-25T12:35:57;99993.78;;;31.20;35.38
52137;BME280;38130;49.012;8.368;2022-08-25T12:38:36;100007.00;;;31.21;35.75
52137;BME280;38130;49.012;8.368;2022-08-25T12:41:11;100006.16;;;31.08;36.19
52137;BME280;38130;49.012;8.368;2022-08-25T12:43:45;99996.22;;;31.08;36.00
52137;BME280;38130;49.012;8.368;2022-08-25T12:51:57;99987.13;;;31.36;36.48
52137;BME280;38130;49.012;8.368;2022-08-25T12:54:46;99996.41;;;31.46;36.81
52137;BME280;38130;49.012;8.368;2022-08-25T12:57:36;99990.84;;;31.41;36.46
52137;BME280;38130;49.012;8.368;2022-08-25T13:00:26;99990.44;;;31.44;36.06
52137;BME280;38130;49.012;8.368;2022-08-25T13:08:49;99984.59;;;31.54;36.44
52137;BME280;38130;49.012;8.368;2022-08-25T13:11:39;99989.63;;;31.31;36.97
52137;BME280;38130;49.012;8.368;2022-08-25T13:14:39;99979.06;;;31.36;37.62
52137;BME280;38130;49.012;8.368;2022-08-25T13:17:09;99976.00;;;31.25;37.38
52137;BME280;38130;49.012;8.368;2022-08-25T13:19:37;99966.69;;;31.15;36.66
52137;BME280;38130;49.012;8.368;2022-08-25T13:22:14;99975.78;;;31.14;37.31
52137;BME280;38130;49.012;8.368;2022-08-25T13:24:44;99976.19;;;31.24;36.42
52137;BME280;38130;49.012;8.368;2022-08-25T13:27:34;99965.25;;;31.12;36.80
52137;BME280;38130;49.012;8.368;2022-08-25T13:30:03;99960.91;;;31.11;37.00
52137;BME280;38130;49.012;8.368;2022-08-25T13:32:35;99962.34;;;31.14;37.55
52137;BME280;38130;49.012;8.368;2022-08-25T13:35:13;99957.38;;;31.17;37.57
52137;BME280;38130;49.012;8.368;2022-08-25T13:37:45;99951.38;;;31.15;37.74
52137;BME280;38130;49.012;8.368;2022-08-25T13:42:46;99938.19;;;31.27;37.40
52137;BME280;38130;49.012;8.368;2022-08-25T13:45:30;99943.13;;;31.30;37.35
52137;BME280;38130;49.012;8.368;2022-08-25T13:48:06;99930.91;;;31.41;36.81
52137;BME280;38130;49.012;8.368;2022-08-25T13:50:48;99932.47;;;31.55;36.46
52137;BME280;38130;49.012;8.368;2022-08-25T13:53:23;99931.25;;;31.57;36.28
52137;BME280;38130;49.012;8.368;2022-08-25T13:55:54;99921.50;;;31.63;36.40
52137;BME280;38130;49.012;8.368;2022-08-25T13:58:26;99926.25;;;31.74;35.60
52137;BME280;38130;49.012;8.368;2022-08-25T14:01:18;99915.28;;;31.76;35.28
52137;BME280;38130;49.012;8.368;2022-08-25T14:06:46;99909.16;;;31.94;35.32
52137;BME280;38130;49.012;8.368;2022-08-25T14:09:16;99913.25;;;32.03;35.38
52137;BME280;38130;49.012;8.368;2022-08-25T14:11:56;99913.56;;;32.20;34.37
52137;BME280;38130;49.012;8.368;2022-08-25T14:19:26;99900.66;;;31.97;34.99
52137;BME280;38130;49.012;8.368;2022-08-25T14:21:53;99909.72;;;32.02;35.19
52137;BME280;38130;49.012;8.368;2022-08-25T14:24:22;99896.47;;;32.07;35.43
52137;BME280;38130;49.012;8.368;2022-08-25T14:26:49;99904.78;;;31.99;35.72
52137;BME280;38130;49.012;8.368;2022-08-25T14:29:20;99906.09;;;31.90;35.60
52137;BME280;38130;49.012;8.368;2022-08-25T14:31:47;99906.72;;;31.85;35.48
52137;BME280;38130;49.012;8.368;2022-08-25T14:34:20;99898.25;;;31.82;34.44
52137;BME280;38130;49.012;8.368;2022-08-25T14:36:49;99904.94;;;31.73;34.79
52137;BME280;38130;49.012;8.368;2022-08-25T14:39:16;99899.00;;;31.57;35.46
52137;BME280;38130;49.012;8.368;2022-08-25T14:41:44;99901.84;;;31.63;35.25
52137;BME280;38130;49.012;8.368;2022-08-25T14:44:18;99896.22;;;31.71;35.21
52137;BME280;38130;49.012;8.368;2022-08-25T14:46:51;99891.69;;;31.78;35.25
52137;BME280;38130;49.012;8.368;2022-08-25T14:49:24;99890.66;;;31.66;35.41
52137;BME280;38130;49.012;8.368;2022-08-25T14:51:56;99880.31;;;31.76;35.26